createdAt,value
2022-10-07T00:01:05.388Z,101096.00
2022-10-07T00:03:35.024Z,101102.09
2022-10-07T00:06:05.181Z,101095.06
2022-10-07T00:08:33.836Z,101102.94
2022-10-07T00:11:06.343Z,101100.19
2022-10-07T00:13:34.238Z,101091.56
2022-10-07T00:16:07.220Z,101096.81
2022-10-07T00:18:38.649Z,101084.22
2022-10-07T00:21:08.867Z,101084.44
2022-10-07T00:23:37.257Z,101092.75
2022-10-07T00:26:06.964Z,101089.50
2022-10-07T00:28:36.284Z,101086.88
2022-10-07T00:31:06.055Z,101082.50
2022-10-07T00:33:36.983Z,101088.69
2022-10-07T00:36:08.237Z,101080.47
2022-10-07T00:38:36.187Z,101080.81
2022-10-07T00:41:04.170Z,101080.47
2022-10-07T00:43:33.054Z,101082.25
2022-10-07T00:46:07.172Z,101069.13
2022-10-07T00:48:39.767Z,101077.13
2022-10-07T00:51:09.412Z,101082.03
2022-10-07T00:53:40.587Z,101093.38
2022-10-07T00:56:09.836Z,101096.25
2022-10-07T00:58:41.022Z,101103.16
2022-10-07T01:01:09.733Z,101110.91
2022-10-07T01:03:39.727Z,101103.66
2022-10-07T01:06:07.783Z,101097.91
2022-10-07T01:08:35.879Z,101103.88
2022-10-07T01:11:14.963Z,101102.09
2022-10-07T01:13:55.843Z,101103.16
2022-10-07T01:16:30.721Z,101121.75
2022-10-07T01:19:14.624Z,101120.69
2022-10-07T01:21:53.965Z,101117.47
2022-10-07T01:24:33.303Z,101121.03
2022-10-07T01:27:07.910Z,101116.94
2022-10-07T01:29:39.395Z,101122.19
2022-10-07T01:32:14.095Z,101114.22
2022-10-07T01:34:44.251Z,101125.44
2022-10-07T01:37:16.536Z,101123.16
2022-10-07T01:39:50.591Z,101130.94
2022-10-07T01:42:20.640Z,101142.34
2022-10-07T01:44:53.538Z,101157.28
2022-10-07T01:47:21.512Z,101155.47
2022-10-07T01:49:49.494Z,101153.69
2022-10-07T01:52:41.024Z,101167.06
2022-10-07T01:55:19.917Z,101154.88
2022-10-07T01:57:58.328Z,101152.25
2022-10-07T02:00:26.675Z,101152.25
2022-10-07T02:03:25.890Z,101157.50
2022-10-07T02:06:01.839Z,101151.31
2022-10-07T02:08:34.980Z,101160.97
2022-10-07T02:11:16.128Z,101146.28
2022-10-07T02:13:56.050Z,101153.31
2022-10-07T02:16:30.331Z,101149.13
2022-10-07T02:19:02.008Z,101155.09
2022-10-07T02:21:32.983Z,101164.75
2022-10-07T02:24:03.198Z,101155.09
2022-10-07T02:26:33.866Z,101152.38
2022-10-07T02:29:05.741Z,101161.22
2022-10-07T02:31:35.643Z,101155.22
2022-10-07T02:34:05.902Z,101159.63
2022-10-07T02:36:39.033Z,101158.91
2022-10-07T02:39:08.195Z,101161.44
2022-10-07T02:41:41.894Z,101153.22
2022-10-07T02:44:25.917Z,101158.34
2022-10-07T02:46:58.167Z,101157.72
2022-10-07T02:49:31.263Z,101162.97
2022-10-07T02:52:02.893Z,101162.88
2022-10-07T02:54:35.927Z,101156.06
2022-10-07T02:57:06.747Z,101158.69
2022-10-07T02:59:37.715Z,101147.56
2022-10-07T03:02:08.028Z,101146.38
2022-10-07T03:04:36.087Z,101150.69
2022-10-07T03:07:05.407Z,101137.59
2022-10-07T03:09:33.830Z,101146.50
2022-10-07T03:12:01.719Z,101137.91
2022-10-07T03:14:30.083Z,101133.69
2022-10-07T03:16:59.361Z,101130.38
2022-10-07T03:19:27.229Z,101124.16
2022-10-07T03:21:56.900Z,101126.91
2022-10-07T03:24:24.738Z,101141.69
2022-10-07T03:26:52.624Z,101135.50
2022-10-07T03:29:20.790Z,101133.91
2022-10-07T03:31:48.820Z,101132.16
2022-10-07T03:34:18.065Z,101138.94
2022-10-07T03:36:45.906Z,101136.44
2022-10-07T03:39:13.888Z,101143.59
2022-10-07T03:41:42.311Z,101144.63
2022-10-07T03:44:10.207Z,101147.03
2022-10-07T03:46:38.186Z,101155.03
2022-10-07T03:49:06.145Z,101162.09
2022-10-07T03:51:36.330Z,101170.28
2022-10-07T03:54:04.375Z,101162.31
2022-10-07T03:56:32.379Z,101165.03
2022-10-07T03:59:00.644Z,101171.84
2022-10-07T04:01:31.736Z,101166.59
2022-10-07T04:04:00.480Z,101155.25
2022-10-07T04:06:29.774Z,101158.94
2022-10-07T04:08:59.078Z,101163.13
2022-10-07T04:11:27.575Z,101157.88
2022-10-07T04:13:55.717Z,101145.91
2022-10-07T04:16:23.692Z,101143.94
2022-10-07T04:18:55.868Z,101139.38
2022-10-07T04:21:24.137Z,101136.88
2022-10-07T04:23:52.347Z,101131.50
2022-10-07T04:26:21.745Z,101139.16
2022-10-07T04:28:50.693Z,101139.91
2022-10-07T04:31:18.711Z,101140.53
2022-10-07T04:33:46.706Z,101131.06
2022-10-07T04:36:14.611Z,101144.81
2022-10-07T04:38:44.330Z,101141.34
2022-10-07T04:41:12.170Z,101143.97
2022-10-07T04:43:41.395Z,101141.03
2022-10-07T04:46:14.341Z,101137.47
2022-10-07T04:48:45.732Z,101141.97
2022-10-07T04:51:14.253Z,101147.75
2022-10-07T04:53:42.124Z,101144.16
2022-10-07T04:56:11.171Z,101148.44
2022-10-07T04:58:39.278Z,101153.94
2022-10-07T05:01:11.434Z,101149.53
2022-10-07T05:03:41.108Z,101151.72
2022-10-07T05:06:11.924Z,101145.38
2022-10-07T05:08:39.981Z,101138.34
2022-10-07T05:11:07.819Z,101141.78
2022-10-07T05:13:38.504Z,101152.19
2022-10-07T05:16:09.867Z,101146.81
2022-10-07T05:18:40.058Z,101147.78
2022-10-07T05:21:08.900Z,101154.69
2022-10-07T05:23:37.199Z,101154.38
2022-10-07T05:26:08.092Z,101162.47
2022-10-07T05:28:36.656Z,101158.28
2022-10-07T05:31:09.502Z,101161.03
2022-10-07T05:33:39.535Z,101156.84
2022-10-07T05:36:09.896Z,101170.69
2022-10-07T05:38:37.983Z,101183.81
2022-10-07T05:41:07.854Z,101162.59
2022-10-07T05:43:38.073Z,101170.25
2022-10-07T05:46:08.895Z,101166.78
2022-10-07T05:48:39.565Z,101162.47
2022-10-07T05:51:09.920Z,101168.47
2022-10-07T05:53:41.238Z,101165.84
2022-10-07T05:56:12.144Z,101175.03
2022-10-07T05:58:40.131Z,101173.38
2022-10-07T06:01:14.270Z,101169.91
2022-10-07T06:03:42.763Z,101172.63
2022-10-07T06:06:12.172Z,101179.16
2022-10-07T06:08:39.993Z,101185.09
2022-10-07T06:11:28.057Z,101184.88
2022-10-07T06:13:56.205Z,101166.59
2022-10-07T06:16:25.274Z,101181.91
2022-10-07T06:18:53.846Z,101189.47
2022-10-07T06:21:27.900Z,101185.91
2022-10-07T06:23:57.943Z,101184.94
2022-10-07T06:26:26.187Z,101187.47
2022-10-07T06:28:54.104Z,101186.38
2022-10-07T06:31:25.364Z,101186.16
2022-10-07T06:33:53.723Z,101186.78
2022-10-07T06:36:23.377Z,101189.78
2022-10-07T06:38:52.363Z,101185.25
2022-10-07T06:41:21.212Z,101187.66
2022-10-07T06:43:49.682Z,101184.19
2022-10-07T06:46:19.428Z,101191.84
2022-10-07T06:48:47.392Z,101188.16
2022-10-07T06:51:16.514Z,101191.38
2022-10-07T06:53:46.177Z,101186.75
2022-10-07T06:56:15.379Z,101190.91
2022-10-07T06:58:43.736Z,101199.66
2022-10-07T07:01:12.468Z,101199.19
2022-10-07T07:03:40.727Z,101201.63
2022-10-07T07:06:11.413Z,101201.16
2022-10-07T07:08:41.290Z,101202.84
2022-10-07T07:11:26.921Z,101206.91
2022-10-07T07:13:55.562Z,101210.25
2022-10-07T07:16:24.327Z,101203.91
2022-10-07T07:18:53.754Z,101208.13
2022-10-07T07:21:22.308Z,101211.69
2022-10-07T07:23:51.220Z,101211.22
2022-10-07T07:26:21.436Z,101214.59
2022-10-07T07:28:52.802Z,101209.22
2022-10-07T07:31:21.308Z,101214.25
2022-10-07T07:33:52.562Z,101204.34
2022-10-07T07:36:23.343Z,101212.94
2022-10-07T07:38:53.192Z,101201.47
2022-10-07T07:41:24.761Z,101202.06
2022-10-07T07:43:54.122Z,101194.78
2022-10-07T07:46:25.784Z,101196.19
2022-10-07T07:48:53.994Z,101187.25
2022-10-07T07:51:22.787Z,101187.13
2022-10-07T07:53:51.115Z,101197.41
2022-10-07T07:56:19.774Z,101180.56
2022-10-07T07:58:49.243Z,101177.56
2022-10-07T08:01:18.904Z,101179.97
2022-10-07T08:03:49.149Z,101166.56
2022-10-07T08:06:19.593Z,101162.00
2022-10-07T08:08:47.663Z,101157.81
2022-10-07T08:11:17.390Z,101159.25
2022-10-07T08:13:45.908Z,101164.25
2022-10-07T08:16:20.093Z,101153.59
2022-10-07T08:18:52.395Z,101146.44
2022-10-07T08:21:23.105Z,101142.84
2022-10-07T08:23:54.444Z,101147.63
2022-10-07T08:26:22.400Z,101147.50
2022-10-07T08:28:50.597Z,101143.09
2022-10-07T08:31:21.405Z,101139.47
2022-10-07T08:33:51.197Z,101145.34
2022-10-07T08:36:21.632Z,101150.75
2022-10-07T08:38:52.616Z,101140.94
2022-10-07T08:41:36.513Z,101146.94
2022-10-07T08:44:17.775Z,101141.91
2022-10-07T08:46:56.238Z,101139.97
2022-10-07T08:49:33.812Z,101132.91
2022-10-07T08:52:07.830Z,101127.53
2022-10-07T08:54:35.708Z,101119.50
2022-10-07T08:57:23.267Z,101118.41
2022-10-07T08:59:59.332Z,101119.25
2022-10-07T09:02:36.517Z,101106.81
2022-10-07T09:05:15.709Z,101096.75
2022-10-07T09:07:48.123Z,101099.13
2022-10-07T09:10:32.107Z,101098.31
2022-10-07T09:13:03.750Z,101086.81
2022-10-07T09:15:40.254Z,101099.97
2022-10-07T09:18:16.373Z,101100.66
2022-10-07T09:20:49.631Z,101081.03
2022-10-07T09:23:17.929Z,101071.66
2022-10-07T09:25:46.004Z,101085.44
2022-10-07T09:28:17.891Z,101067.44
2022-10-07T09:30:46.019Z,101051.03
2022-10-07T09:33:17.785Z,101053.41
2022-10-07T09:35:57.386Z,101061.28
2022-10-07T09:38:35.982Z,101048.88
2022-10-07T09:41:20.520Z,101045.00
2022-10-07T09:43:59.591Z,101039.59
2022-10-07T09:46:42.255Z,101051.56
2022-10-07T09:49:30.953Z,101052.25
2022-10-07T09:54:20.251Z,101041.78
2022-10-07T09:56:48.496Z,101040.53
2022-10-07T09:59:21.393Z,101033.22
2022-10-07T10:01:55.738Z,101033.81
2022-10-07T10:04:30.674Z,101033.66
2022-10-07T10:07:04.504Z,101028.53
2022-10-07T10:09:35.392Z,101022.28
2022-10-07T10:12:12.286Z,101020.50
2022-10-07T10:14:50.079Z,101020.22
2022-10-07T10:17:31.609Z,101016.63
2022-10-07T10:20:43.549Z,101013.72
2022-10-07T10:23:27.840Z,101013.72
2022-10-07T10:26:33.399Z,101015.38
2022-10-07T10:29:12.004Z,101000.81
2022-10-07T10:32:05.310Z,100996.81
2022-10-07T10:34:45.056Z,100988.91
2022-10-07T10:37:19.138Z,100990.84
2022-10-07T10:40:01.120Z,100980.56
2022-10-07T10:42:42.141Z,100976.13
2022-10-07T10:45:25.244Z,100977.91
2022-10-07T10:48:07.456Z,100974.44
2022-10-07T10:50:44.656Z,100972.94
2022-10-07T10:53:27.536Z,100965.03
2022-10-07T10:56:17.206Z,100968.97
2022-10-07T10:58:58.218Z,100961.47
2022-10-07T11:01:35.404Z,100970.66
2022-10-07T11:04:39.611Z,100960.53
2022-10-07T11:07:20.697Z,100954.00
2022-10-07T11:09:52.561Z,100943.88
2022-10-07T11:12:26.465Z,100945.53
2022-10-07T11:15:02.743Z,100932.47
2022-10-07T11:17:36.446Z,100938.59
2022-10-07T11:20:16.851Z,100929.72
2022-10-07T11:22:48.919Z,100937.22
2022-10-07T11:25:25.666Z,100928.75
2022-10-07T11:28:00.452Z,100926.94
2022-10-07T11:30:37.963Z,100921.38
2022-10-07T11:33:11.368Z,100909.16
2022-10-07T11:35:47.690Z,100896.78
2022-10-07T11:38:18.508Z,100903.44
2022-10-07T11:40:50.429Z,100898.03
2022-10-07T11:43:21.028Z,100894.03
2022-10-07T11:45:54.788Z,100898.31
2022-10-07T11:48:27.644Z,100897.34
2022-10-07T11:51:02.414Z,100888.59
2022-10-07T11:53:34.627Z,100879.84
2022-10-07T11:56:05.744Z,100867.50
2022-10-07T11:58:37.385Z,100861.94
2022-10-07T12:01:39.817Z,100859.81
2022-10-07T12:04:35.305Z,100858.16
2022-10-07T12:07:38.263Z,100854.53
2022-10-07T12:10:22.020Z,100859.41
2022-10-07T12:13:37.638Z,100863.69
2022-10-07T12:16:38.909Z,100850.50
2022-10-07T12:19:23.486Z,100846.75
2022-10-07T12:22:19.904Z,100842.56
2022-10-07T12:25:29.283Z,100843.84
2022-10-07T12:27:59.281Z,100837.84
2022-10-07T12:30:50.596Z,100852.75
2022-10-07T12:33:29.915Z,100840.06
2022-10-07T12:35:57.828Z,100838.00
2022-10-07T12:40:49.649Z,100844.78
2022-10-07T12:43:28.175Z,100828.81
2022-10-07T12:46:00.610Z,100828.81
2022-10-07T12:48:35.908Z,100828.38
2022-10-07T12:51:05.966Z,100837.16
2022-10-07T12:53:41.634Z,100824.38
2022-10-07T12:56:21.091Z,100823.22
2022-10-07T12:59:57.714Z,100818.78
2022-10-07T13:03:15.338Z,100834.50
2022-10-07T13:06:36.822Z,100829.06
2022-10-07T13:09:41.251Z,100833.94
2022-10-07T13:12:27.633Z,100818.25
2022-10-07T13:15:06.022Z,100823.56
2022-10-07T13:17:44.719Z,100837.28
2022-10-07T13:20:35.973Z,100823.13
2022-10-07T13:23:12.666Z,100824.22
2022-10-07T13:25:46.256Z,100819.94
2022-10-07T13:28:17.964Z,100817.00
2022-10-07T13:30:47.071Z,100809.78
2022-10-07T13:33:28.047Z,100796.97
2022-10-07T13:36:17.634Z,100790.03
2022-10-07T13:38:47.290Z,100787.38
2022-10-07T13:41:26.146Z,100785.75
2022-10-07T13:44:00.457Z,100789.63
2022-10-07T13:46:31.335Z,100786.16
2022-10-07T13:49:00.518Z,100779.19
2022-10-07T13:51:32.833Z,100780.31
2022-10-07T13:54:03.111Z,100789.09
2022-10-07T13:56:33.740Z,100776.84
2022-10-07T13:59:04.523Z,100776.03
2022-10-07T14:01:37.867Z,100777.53
2022-10-07T14:04:29.799Z,100758.91
2022-10-07T14:07:01.156Z,100760.72
2022-10-07T14:09:45.554Z,100769.75
2022-10-07T14:12:18.119Z,100745.59
2022-10-07T14:14:49.828Z,100769.97
2022-10-07T14:17:28.355Z,100764.84
2022-10-07T14:19:59.185Z,100750.66
2022-10-07T14:22:32.216Z,100752.06
2022-10-07T14:25:03.567Z,100758.84
2022-10-07T14:27:53.177Z,100744.16
2022-10-07T14:30:56.132Z,100754.56
2022-10-07T14:33:47.699Z,100745.00
2022-10-07T14:36:18.076Z,100739.00
2022-10-07T14:38:47.564Z,100729.31
2022-10-07T14:41:18.248Z,100734.44
2022-10-07T14:43:47.990Z,100740.38
2022-10-07T14:46:20.680Z,100739.56
2022-10-07T14:48:49.520Z,100744.56
2022-10-07T14:51:20.086Z,100729.16
2022-10-07T14:53:51.255Z,100729.16
2022-10-07T14:56:25.223Z,100729.44
2022-10-07T14:58:54.175Z,100724.16
2022-10-07T15:01:23.785Z,100703.34
2022-10-07T15:03:51.715Z,100708.06
2022-10-07T15:06:21.489Z,100715.41
2022-10-07T15:08:52.433Z,100694.72
2022-10-07T15:11:23.332Z,100699.34
2022-10-07T15:13:51.383Z,100715.28
2022-10-07T15:16:22.068Z,100707.81
2022-10-07T15:18:54.366Z,100699.19
2022-10-07T15:21:23.417Z,100701.16
2022-10-07T15:23:53.157Z,100695.19
2022-10-07T15:26:25.369Z,100697.25
2022-10-07T15:28:54.340Z,100699.22
2022-10-07T15:31:23.382Z,100704.75
2022-10-07T15:33:51.607Z,100715.97
2022-10-07T15:36:20.908Z,100711.69
2022-10-07T15:38:49.449Z,100699.06
2022-10-07T15:41:31.528Z,100709.34
2022-10-07T15:44:00.037Z,100690.31
2022-10-07T15:46:29.017Z,100704.19
2022-10-07T15:48:57.306Z,100704.47
2022-10-07T15:51:28.086Z,100699.75
2022-10-07T15:53:55.994Z,100699.19
2022-10-07T15:56:25.468Z,100691.97
2022-10-07T15:58:54.167Z,100701.00
2022-10-07T16:01:22.302Z,100689.91
2022-10-07T16:03:50.927Z,100684.91
2022-10-07T16:06:21.651Z,100687.94
2022-10-07T16:08:52.088Z,100685.72
2022-10-07T16:11:21.388Z,100676.72
2022-10-07T16:13:50.263Z,100672.28
2022-10-07T16:16:22.618Z,100687.66
2022-10-07T16:18:52.225Z,100686.56
2022-10-07T16:21:23.142Z,100678.91
2022-10-07T16:23:55.941Z,100685.13
2022-10-07T16:26:26.961Z,100698.31
2022-10-07T16:29:12.951Z,100697.38
2022-10-07T16:31:42.534Z,100687.38
2022-10-07T16:34:13.418Z,100697.91
2022-10-07T16:36:45.536Z,100681.97
2022-10-07T16:39:15.889Z,100695.13
2022-10-07T16:41:44.214Z,100693.91
2022-10-07T16:44:12.410Z,100677.41
2022-10-07T16:46:40.793Z,100673.94
2022-10-07T16:49:11.697Z,100668.25
2022-10-07T16:51:39.539Z,100666.13
2022-10-07T16:54:12.956Z,100669.03
2022-10-07T16:56:46.101Z,100664.84
2022-10-07T16:59:19.735Z,100662.78
2022-10-07T17:01:50.945Z,100657.66
2022-10-07T17:04:19.166Z,100651.00
2022-10-07T17:06:47.121Z,100658.19
2022-10-07T17:09:17.435Z,100642.81
2022-10-07T17:11:47.661Z,100641.28
2022-10-07T17:14:17.646Z,100648.47
2022-10-07T17:16:47.268Z,100628.66
2022-10-07T17:19:17.474Z,100625.31
2022-10-07T17:21:47.076Z,100631.44
2022-10-07T17:24:15.980Z,100632.13
2022-10-07T17:26:44.113Z,100630.59
2022-10-07T17:29:18.494Z,100629.34
2022-10-07T17:31:50.186Z,100619.38
2022-10-07T17:34:20.507Z,100623.22
2022-10-07T17:36:48.852Z,100617.03
2022-10-07T17:39:17.332Z,100629.47
2022-10-07T17:41:45.344Z,100615.19
2022-10-07T17:44:17.510Z,100617.81
2022-10-07T17:46:45.667Z,100613.53
2022-10-07T17:49:14.310Z,100622.28
2022-10-07T17:51:44.116Z,100608.81
2022-10-07T17:54:13.995Z,100612.97
2022-10-07T17:56:44.494Z,100602.44
2022-10-07T17:59:12.582Z,100601.50
2022-10-07T18:01:42.416Z,100608.28
2022-10-07T18:04:13.158Z,100592.34
2022-10-07T18:06:43.333Z,100595.69
2022-10-07T18:09:17.300Z,100601.63
2022-10-07T18:12:03.070Z,100602.19
2022-10-07T18:14:53.273Z,100598.06
2022-10-07T18:17:24.705Z,100611.75
2022-10-07T18:19:53.038Z,100596.38
2022-10-07T18:22:21.064Z,100593.63
2022-10-07T18:24:49.799Z,100591.94
2022-10-07T18:27:17.687Z,100587.66
2022-10-07T18:29:45.890Z,100594.16
2022-10-07T18:32:13.868Z,100587.38
2022-10-07T18:34:43.248Z,100581.53
2022-10-07T18:37:11.123Z,100593.06
2022-10-07T18:39:39.256Z,100589.00
2022-10-07T18:42:07.572Z,100587.63
2022-10-07T18:44:35.487Z,100588.59
2022-10-07T18:47:03.395Z,100586.66
2022-10-07T18:49:31.234Z,100571.84
2022-10-07T18:52:01.494Z,100574.03
2022-10-07T18:54:29.331Z,100565.59
2022-10-07T18:56:57.447Z,100558.66
2022-10-07T18:59:25.299Z,100574.16
2022-10-07T19:01:55.544Z,100556.00
2022-10-07T19:04:23.719Z,100563.38
2022-10-07T19:06:51.584Z,100566.00
2022-10-07T19:09:22.117Z,100567.38
2022-10-07T19:11:50.524Z,100559.06
2022-10-07T19:14:17.529Z,100556.84
2022-10-07T19:16:48.988Z,100552.84
2022-10-07T19:19:19.309Z,100541.34
2022-10-07T19:21:49.177Z,100551.59
2022-10-07T19:24:17.659Z,100546.59
2022-10-07T19:26:50.020Z,100535.50
2022-10-07T19:29:18.866Z,100524.03
2022-10-07T19:31:48.908Z,100532.72
2022-10-07T19:34:18.607Z,100537.47
2022-10-07T19:36:47.358Z,100529.84
2022-10-07T19:39:16.433Z,100528.41
2022-10-07T19:41:44.371Z,100523.88
2022-10-07T19:44:14.453Z,100520.38
2022-10-07T19:46:42.612Z,100511.56
2022-10-07T19:49:11.650Z,100522.06
2022-10-07T19:51:41.970Z,100514.06
2022-10-07T19:54:12.954Z,100524.97
2022-10-07T19:56:41.898Z,100517.09
2022-10-07T19:59:11.622Z,100517.34
2022-10-07T20:01:42.453Z,100517.22
2022-10-07T20:04:13.275Z,100504.34
2022-10-07T20:06:41.602Z,100510.31
2022-10-07T20:09:11.560Z,100507.53
2022-10-07T20:11:39.600Z,100515.44
2022-10-07T20:14:07.697Z,100509.91
2022-10-07T20:16:37.309Z,100491.34
2022-10-07T20:19:07.869Z,100505.47
2022-10-07T20:21:36.555Z,100496.72
2022-10-07T20:24:08.526Z,100500.63
2022-10-07T20:26:38.451Z,100495.22
2022-10-07T20:29:10.027Z,100488.84
2022-10-07T20:31:40.440Z,100484.16
2022-10-07T20:34:11.450Z,100486.22
2022-10-07T20:36:41.399Z,100483.03
2022-10-07T20:39:31.760Z,100479.41
2022-10-07T20:42:17.136Z,100479.97
2022-10-07T20:44:49.336Z,100476.38
2022-10-07T20:47:17.978Z,100479.16
2022-10-07T20:49:48.770Z,100481.91
2022-10-07T20:52:18.681Z,100482.72
2022-10-07T20:54:47.516Z,100482.59
2022-10-07T20:57:21.442Z,100487.06
2022-10-07T20:59:49.520Z,100484.28
2022-10-07T21:02:19.135Z,100482.47
2022-10-07T21:04:48.579Z,100471.13
2022-10-07T21:07:20.560Z,100481.38
2022-10-07T21:09:48.614Z,100465.44
2022-10-07T21:12:18.263Z,100458.63
2022-10-07T21:14:48.476Z,100455.19
2022-10-07T21:17:17.271Z,100449.22
2022-10-07T21:19:45.309Z,100452.84
2022-10-07T21:22:14.547Z,100451.44
2022-10-07T21:24:42.415Z,100462.09
2022-10-07T21:27:10.477Z,100446.44
2022-10-07T21:29:41.041Z,100439.66
2022-10-07T21:32:09.731Z,100452.81
2022-10-07T21:34:37.785Z,100436.47
2022-10-07T21:37:05.759Z,100438.81
2022-10-07T21:39:35.018Z,100436.19
2022-10-07T21:42:03.019Z,100433.41
2022-10-07T21:44:33.399Z,100429.00
2022-10-07T21:47:01.200Z,100426.09
2022-10-07T21:49:29.065Z,100427.50
2022-10-07T21:51:56.904Z,100419.47
2022-10-07T21:54:24.749Z,100420.00
2022-10-07T21:56:53.988Z,100417.63
2022-10-07T21:59:21.852Z,100408.22
2022-10-07T22:01:49.756Z,100407.25
2022-10-07T22:04:20.078Z,100398.41
2022-10-07T22:07:05.561Z,100388.84
2022-10-07T22:09:33.599Z,100395.91
2022-10-07T22:12:02.801Z,100386.91
2022-10-07T22:14:30.754Z,100395.63
2022-10-07T22:16:58.847Z,100386.63
2022-10-07T22:19:26.773Z,100371.81
2022-10-07T22:21:55.005Z,100375.25
2022-10-07T22:24:24.064Z,100363.91
2022-10-07T22:26:52.246Z,100362.25
2022-10-07T22:29:23.097Z,100363.38
2022-10-07T22:31:51.036Z,100353.69
2022-10-07T22:34:36.642Z,100350.47
2022-10-07T22:37:07.731Z,100356.72
2022-10-07T22:39:35.716Z,100351.75
2022-10-07T22:42:06.444Z,100341.22
2022-10-07T22:44:38.543Z,100345.13
2022-10-07T22:47:06.466Z,100352.16
2022-10-07T22:49:34.344Z,100333.19
2022-10-07T22:52:02.215Z,100333.59
2022-10-07T22:54:30.562Z,100340.69
2022-10-07T22:56:58.446Z,100332.94
2022-10-07T22:59:26.343Z,100327.69
2022-10-07T23:01:55.547Z,100323.94
2022-10-07T23:04:23.373Z,100327.78
2022-10-07T23:06:51.244Z,100307.72
2022-10-07T23:09:19.286Z,100317.25
2022-10-07T23:11:47.162Z,100312.69
2022-10-07T23:14:15.075Z,100310.75
2022-10-07T23:16:44.811Z,100312.44
2022-10-07T23:19:14.352Z,100304.25
2022-10-07T23:21:42.256Z,100289.41
2022-10-07T23:24:11.644Z,100293.16
2022-10-07T23:26:39.524Z,100286.94
2022-10-07T23:29:08.661Z,100273.63
2022-10-07T23:31:36.662Z,100272.69
2022-10-07T23:34:06.613Z,100276.25
2022-10-07T23:36:35.842Z,100257.19
2022-10-07T23:39:03.953Z,100263.81
2022-10-07T23:41:32.032Z,100267.28
2022-10-07T23:44:01.961Z,100257.69
2022-10-07T23:46:33.162Z,100255.91
2022-10-07T23:49:01.399Z,100246.91
2022-10-07T23:51:29.900Z,100238.56
2022-10-07T23:53:59.839Z,100241.06
2022-10-07T23:56:27.707Z,100239.28
2022-10-07T23:58:55.571Z,100235.66
